Time;durP1;ratioP1;P1;durP2;ratioP2;P2;SDS_P1;SDS_P2;PMS_P1;PMS_P2;Temp;Humidity;BMP_temperature;BMP_pressure;BME280_temperature;BME280_humidity;BME280_pressure;Samples;Min_cycle;Max_cycle;Signal;HPM_P1;HPM_P2
2021/10/21 00:04:51;;;;;;;0.70;0.40;;;;;;;17.85;52.45;98585.56;10465270;28;20470;-74
2021/10/21 00:09:53;;;;;;;0.38;0.30;;;;;;;17.93;52.10;98587.59;10465929;28;20098;-74
2021/10/21 00:14:55;;;;;;;0.38;0.30;;;;;;;17.58;53.78;98554.16;10465214;28;20061;-75
2021/10/21 00:19:57;;;;;;;0.43;0.30;;;;;;;17.72;53.60;98533.56;10464994;28;20406;-73
2021/10/21 00:24:59;;;;;;;0.32;0.30;;;;;;;17.47;54.18;98548.91;10463244;28;20529;-73
2021/10/21 00:30:01;;;;;;;0.55;0.30;;;;;;;17.35;54.56;98556.09;10466137;28;20033;-75
2021/10/21 00:35:02;;;;;;;0.40;0.40;;;;;;;17.17;55.24;98543.47;10467822;28;20095;-74
2021/10/21 00:40:05;;;;;;;0.38;0.38;;;;;;;17.27;54.77;98545.25;10463761;28;20041;-74
2021/10/21 00:45:07;;;;;;;0.30;0.30;;;;;;;17.27;54.72;98539.09;10462896;28;20052;-74
2021/10/21 00:50:09;;;;;;;0.40;0.30;;;;;;;17.17;55.91;98525.72;10462523;28;20064;-74
2021/10/21 00:55:12;;;;;;;0.55;0.40;;;;;;;17.03;56.39;98513.59;10465846;28;20497;-74
2021/10/21 01:00:14;;;;;;;0.50;0.30;;;;;;;16.84;57.46;98497.50;10444770;28;20109;-74
2021/10/21 01:05:15;;;;;;;1.15;0.40;;;;;;;16.79;57.43;98494.41;10462671;28;20425;-74
2021/10/21 01:10:17;;;;;;;1.02;0.32;;;;;;;16.95;57.44;98472.72;10461842;28;20045;-73
2021/10/21 01:15:26;;;;;;;0.20;0.20;;;;;;;17.22;56.14;98462.47;10466153;28;20489;-74
2021/10/21 01:20:28;;;;;;;0.30;0.30;;;;;;;17.16;56.69;98447.03;10461482;28;20045;-73
2021/10/21 01:25:30;;;;;;;2.08;0.60;;;;;;;17.24;56.63;98441.09;10462382;28;20536;-72
2021/10/21 01:30:32;;;;;;;0.60;0.50;;;;;;;17.18;56.73;98441.59;10461722;28;20468;-73
2021/10/21 01:35:33;;;;;;;0.50;0.40;;;;;;;17.34;56.57;98431.38;10460900;28;20061;-74
2021/10/21 01:40:35;;;;;;;0.40;0.35;;;;;;;17.27;56.72;98436.38;10464504;28;20052;-74
2021/10/21 01:45:37;;;;;;;0.65;0.47;;;;;;;17.28;57.82;98450.50;10461903;28;20052;-74
2021/10/21 01:50:39;;;;;;;0.30;0.30;;;;;;;17.53;57.07;98451.88;10462046;28;20040;-73
2021/10/21 01:55:42;;;;;;;0.40;0.40;;;;;;;17.75;56.70;98453.56;10459546;28;20127;-74
2021/10/21 02:00:44;;;;;;;1.17;0.30;;;;;;;17.82;57.71;98433.47;10462759;28;20045;-75
2021/10/21 02:05:45;;;;;;;2.03;0.70;;;;;;;17.82;58.70;98442.28;10465398;28;20106;-74
2021/10/21 02:10:47;;;;;;;0.77;0.52;;;;;;;17.79;58.57;98442.53;10460479;28;20041;-73
2021/10/21 02:15:49;;;;;;;1.13;0.60;;;;;;;17.84;58.99;98450.13;10459818;28;20056;-74
2021/10/21 02:20:50;;;;;;;0.70;0.70;;;;;;;17.89;58.51;98446.13;10462945;28;20040;-75
2021/10/21 02:25:52;;;;;;;0.75;0.60;;;;;;;17.89;58.70;98458.56;10461053;28;20095;-74
2021/10/21 02:30:54;;;;;;;0.88;0.50;;;;;;;17.88;59.47;98467.50;10458637;28;20491;-74
2021/10/21 02:35:55;;;;;;;1.77;0.70;;;;;;;17.71;62.24;98479.56;10459474;28;20041;-74
2021/10/21 02:40:57;;;;;;;2.25;0.80;;;;;;;17.18;65.41;98487.59;10459007;28;20049;-73
2021/10/21 02:46:00;;;;;;;0.60;0.60;;;;;;;16.60;68.21;98474.63;10461251;28;20056;-71
2021/10/21 02:51:02;;;;;;;0.77;0.60;;;;;;;16.12;72.00;98423.75;10456286;28;20049;-71
2021/10/21 02:56:04;;;;;;;1.10;0.75;;;;;;;15.89;74.33;98384.03;10456853;28;20419;-71
2021/10/21 03:01:05;;;;;;;0.90;0.82;;;;;;;15.60;76.37;98353.66;10459279;28;20045;-71
2021/10/21 03:06:07;;;;;;;0.88;0.80;;;;;;;15.38;78.97;98322.75;10461631;28;20382;-70
2021/10/21 03:11:08;;;;;;;1.45;0.80;;;;;;;15.16;79.92;98298.91;10458635;28;20075;-71
2021/10/21 03:16:10;;;;;;;0.73;0.73;;;;;;;14.85;80.88;98290.72;10465769;28;20045;-71
2021/10/21 03:21:12;;;;;;;0.68;0.57;;;;;;;14.89;80.69;98226.03;10464019;28;20090;-69
2021/10/21 03:26:13;;;;;;;0.60;0.60;;;;;;;14.88;81.82;98189.97;10468902;28;20044;-71
2021/10/21 03:31:15;;;;;;;1.33;0.98;;;;;;;14.88;82.08;98152.94;10465272;28;20122;-71
2021/10/21 03:36:17;;;;;;;0.75;0.70;;;;;;;14.96;80.69;98121.38;10465329;28;20086;-71
2021/10/21 03:41:19;;;;;;;0.80;0.60;;;;;;;15.06;78.85;98090.59;10465949;28;20045;-70
2021/10/21 03:46:21;;;;;;;1.90;0.70;;;;;;;15.06;78.55;98111.75;10465690;28;20049;-70
2021/10/21 03:51:22;;;;;;;0.68;0.50;;;;;;;15.24;76.63;98092.72;10466584;28;20049;-70
2021/10/21 03:56:24;;;;;;;1.30;0.40;;;;;;;15.54;73.55;98078.75;10476935;22;20045;-74
2021/10/21 04:01:26;;;;;;;0.70;0.50;;;;;;;15.78;71.23;98057.34;10464563;28;20056;-74
2021/10/21 04:06:28;;;;;;;0.60;0.60;;;;;;;15.85;70.45;98019.63;10463831;28;20083;-73
2021/10/21 04:11:29;;;;;;;0.43;0.43;;;;;;;15.69;70.85;98015.75;10462234;28;20045;-75
2021/10/21 04:16:31;;;;;;;0.70;0.50;;;;;;;15.63;69.61;98004.69;10462212;28;20048;-76
2021/10/21 04:21:33;;;;;;;0.57;0.50;;;;;;;15.92;66.58;97987.28;10463330;28;20056;-75
2021/10/21 04:26:34;;;;;;;0.52;0.50;;;;;;;16.07;65.29;97986.81;10459548;28;20212;-76
2021/10/21 04:31:36;;;;;;;0.30;0.30;;;;;;;16.26;63.60;97972.78;10463226;28;20041;-76
2021/10/21 04:36:38;;;;;;;0.68;0.38;;;;;;;16.52;61.75;97973.13;10462195;28;20049;-78
2021/10/21 04:41:41;;;;;;;0.98;0.40;;;;;;;16.53;62.51;97985.41;10462829;28;20071;-76
2021/10/21 04:46:43;;;;;;;1.02;0.50;;;;;;;16.58;61.61;97961.97;10461864;28;20068;-78
2021/10/21 04:51:45;;;;;;;1.15;0.40;;;;;;;16.60;61.68;97949.44;10461603;28;20075;-76
2021/10/21 04:56:46;;;;;;;0.95;0.60;;;;;;;16.56;62.26;97971.06;10459816;28;20053;-76
2021/10/21 05:01:48;;;;;;;0.77;0.77;;;;;;;16.50;62.40;97968.94;10460564;28;20398;-76
2021/10/21 05:06:50;;;;;;;0.93;0.70;;;;;;;16.56;61.77;97966.59;10460406;28;20074;-76
2021/10/21 05:11:51;;;;;;;1.33;0.77;;;;;;;16.69;61.81;97974.28;10458682;28;20045;-76
2021/10/21 05:16:53;;;;;;;1.70;0.75;;;;;;;16.64;62.01;97971.19;10460649;28;20379;-75
2021/10/21 05:21:55;;;;;;;3.72;0.90;;;;;;;16.62;62.90;97965.19;10459793;28;20106;-75
2021/10/21 05:26:57;;;;;;;1.75;0.75;;;;;;;16.50;64.20;97961.81;10460488;28;20099;-76
2021/10/21 05:31:58;;;;;;;1.77;0.93;;;;;;;16.30;65.48;97957.44;10459860;28;20045;-76
2021/10/21 05:37:02;;;;;;;1.75;0.80;;;;;;;16.31;65.29;97938.75;10458603;28;20132;-76
2021/10/21 05:42:03;;;;;;;1.88;0.70;;;;;;;16.29;65.56;97942.50;10459020;28;20037;-76
2021/10/21 05:47:05;;;;;;;3.15;0.77;;;;;;;16.41;65.29;97917.56;10458894;28;20041;-75
2021/10/21 05:52:07;;;;;;;2.05;0.70;;;;;;;16.30;65.56;97901.78;10458426;28;20091;-75
2021/10/21 05:57:08;;;;;;;1.70;0.70;;;;;;;16.47;64.69;97932.06;10457850;28;20080;-75
2021/10/21 06:02:10;;;;;;;7.07;0.70;;;;;;;16.52;64.57;97951.91;10458237;28;20053;-74
2021/10/21 06:07:12;;;;;;;0.88;0.57;;;;;;;16.61;64.26;97982.09;10457399;28;20049;-76
2021/10/21 06:12:14;;;;;;;1.67;0.50;;;;;;;16.42;66.37;97988.16;10455851;28;20044;-76
2021/10/21 06:17:16;;;;;;;0.73;0.60;;;;;;;16.14;69.42;97998.53;10457307;28;20453;-75
2021/10/21 06:22:18;;;;;;;0.68;0.57;;;;;;;15.85;71.93;98016.13;10456902;28;20049;-75
2021/10/21 06:27:20;;;;;;;3.67;0.75;;;;;;;15.80;71.03;98026.25;10455416;28;20106;-75
2021/10/21 06:32:21;;;;;;;0.30;0.30;;;;;;;15.63;67.80;98003.84;10457748;28;20051;-74
2021/10/21 06:37:23;;;;;;;0.30;0.25;;;;;;;15.39;66.77;97982.91;10455367;28;20041;-75
2021/10/21 06:42:25;;;;;;;1.70;0.35;;;;;;;15.29;66.38;97961.66;10456558;28;20045;-75
2021/10/21 06:47:26;;;;;;;1.17;0.47;;;;;;;15.23;67.32;97982.50;10459041;28;20379;-77
2021/10/21 06:52:28;;;;;;;0.50;0.47;;;;;;;15.17;67.83;97969.78;10464758;28;20479;-75
2021/10/21 06:57:29;;;;;;;2.38;0.43;;;;;;;15.10;68.83;98012.66;10465164;28;20175;-75
2021/10/21 07:02:31;;;;;;;0.63;0.47;;;;;;;15.13;68.77;97998.31;10466182;28;20037;-74
2021/10/21 07:07:33;;;;;;;1.40;0.30;;;;;;;15.00;69.44;98001.13;10447454;28;20106;-74
2021/10/21 07:12:36;;;;;;;1.48;0.50;;;;;;;15.04;69.89;98005.19;10464850;28;20037;-74
2021/10/21 07:17:38;;;;;;;1.88;0.70;;;;;;;15.07;69.69;98010.25;10464762;28;20059;-74
2021/10/21 07:22:39;;;;;;;1.30;0.70;;;;;;;15.05;70.28;98035.13;10465068;28;20402;-75
2021/10/21 07:27:42;;;;;;;2.53;0.60;;;;;;;15.17;70.07;98033.31;10463934;28;20049;-75
2021/10/21 07:32:45;;;;;;;1.10;0.82;;;;;;;15.17;70.68;98047.38;10463185;28;20041;-74
2021/10/21 07:37:46;;;;;;;1.55;0.50;;;;;;;15.23;69.24;98062.75;10464276;28;20053;-74
2021/10/21 07:42:48;;;;;;;1.98;0.40;;;;;;;15.59;61.74;98042.97;10463312;28;20553;-74
2021/10/21 07:47:50;;;;;;;5.25;0.50;;;;;;;15.55;61.70;98041.56;10461650;28;20103;-74
2021/10/21 07:52:52;;;;;;;3.55;0.60;;;;;;;15.60;58.56;98051.75;10462326;28;20053;-73
2021/10/21 07:57:53;;;;;;;1.65;0.57;;;;;;;15.60;57.93;98065.00;10462491;28;20048;-74
2021/10/21 08:02:56;;;;;;;4.00;0.50;;;;;;;15.73;54.58;98056.91;10462286;28;20095;-74
2021/10/21 08:08:03;;;;;;;2.97;0.75;;;;;;;15.82;50.12;98056.13;10460007;28;20045;-73
2021/10/21 08:13:05;;;;;;;35.75;1.42;;;;;;;15.87;46.16;98083.91;10460433;28;20548;-72
2021/10/21 08:18:11;;;;;;;4.80;0.70;;;;;;;15.73;47.32;98096.63;10462564;28;20045;-75
2021/10/21 08:23:12;;;;;;;9.52;0.90;;;;;;;15.61;47.05;98095.81;10462757;28;20045;-74
2021/10/21 08:28:14;;;;;;;4.93;0.88;;;;;;;15.68;46.42;98053.81;10461922;28;20107;-74
2021/10/21 08:33:15;;;;;;;3.83;0.80;;;;;;;15.81;47.07;98062.41;10460201;28;20049;-74
2021/10/21 08:38:18;;;;;;;2.28;0.50;;;;;;;15.88;46.90;98071.50;10462124;28;20061;-74
2021/10/21 08:43:20;;;;;;;8.25;0.80;;;;;;;16.10;47.92;98055.44;10461283;28;20033;-74
2021/10/21 08:48:22;;;;;;;5.68;0.70;;;;;;;16.15;45.68;98055.03;10460294;28;20053;-73
2021/10/21 08:53:24;;;;;;;8.02;1.23;;;;;;;16.04;45.69;98052.50;10460692;28;20041;-74
2021/10/21 08:58:31;;;;;;;7.20;0.65;;;;;;;16.09;45.35;98040.50;10443806;28;20045;-74
2021/10/21 09:03:50;;;;;;;6.20;0.90;;;;;;;16.00;45.78;98045.75;10460348;28;20099;-74
2021/10/21 09:08:52;;;;;;;10.85;1.00;;;;;;;16.03;44.92;98083.44;10460963;28;20044;-74
2021/10/21 09:14:08;;;;;;;15.43;0.73;;;;;;;16.01;45.06;98026.25;10459627;28;20049;-74
2021/10/21 09:19:11;;;;;;;4.57;0.68;;;;;;;16.00;45.44;98041.31;10461387;28;20044;-75
2021/10/21 09:24:41;;;;;;;6.30;0.60;;;;;;;16.10;45.06;98036.03;10461351;28;20048;-74
2021/10/21 09:29:54;;;;;;;6.05;0.80;;;;;;;16.10;44.71;98028.94;10461215;28;20143;-73
2021/10/21 09:35:02;;;;;;;6.38;0.95;;;;;;;16.09;45.75;98045.81;10461878;28;20099;-74
2021/10/21 09:40:07;;;;;;;9.27;0.55;;;;;;;16.19;45.05;98029.94;10463242;28;20053;-73
2021/10/21 09:45:17;;;;;;;3.35;0.70;;;;;;;16.12;45.69;98071.22;10459694;28;20052;-75
2021/10/21 09:50:38;;;;;;;6.15;0.70;;;;;;;16.37;45.42;98093.78;10460115;28;20495;-75
2021/10/21 09:55:42;;;;;;;4.07;0.68;;;;;;;16.25;45.86;98068.38;10459300;28;20391;-74
2021/10/21 10:00:45;;;;;;;8.07;0.82;;;;;;;16.14;46.72;98087.81;10458360;28;20060;-74
2021/10/21 10:05:54;;;;;;;3.55;0.50;;;;;;;15.76;47.35;98091.06;10458562;28;20487;-74
2021/10/21 10:11:01;;;;;;;6.20;0.70;;;;;;;15.53;48.19;98091.13;10457091;28;20509;-74
2021/10/21 10:16:02;;;;;;;7.93;0.60;;;;;;;15.63;48.52;98070.88;10456942;28;20052;-75
2021/10/21 10:21:34;;;;;;;4.57;0.60;;;;;;;15.52;48.91;98073.56;10457938;28;20049;-75
2021/10/21 10:26:45;;;;;;;12.48;0.70;;;;;;;15.26;49.70;98149.00;10457555;28;20063;-74
2021/10/21 10:31:54;;;;;;;4.15;0.50;;;;;;;15.49;49.03;98200.06;10457000;28;20048;-74
2021/10/21 10:36:56;;;;;;;2.92;0.47;;;;;;;15.42;49.53;98246.56;10457619;28;20051;-75
2021/10/21 10:41:58;;;;;;;5.30;0.50;;;;;;;15.13;50.69;98221.44;10457096;28;20122;-74
2021/10/21 10:47:00;;;;;;;5.28;0.60;;;;;;;15.01;50.98;98248.88;10448555;28;20444;-74
2021/10/21 10:52:03;;;;;;;5.82;0.70;;;;;;;14.98;51.23;98302.03;10483751;28;20062;-74
2021/10/21 10:57:07;;;;;;;5.40;0.43;;;;;;;14.84;53.61;98331.34;10461677;28;20110;-73
2021/10/21 11:02:29;;;;;;;1.65;0.22;;;;;;;13.92;60.16;98339.97;10459968;28;20040;-73
2021/10/21 11:07:40;;;;;;;6.03;0.40;;;;;;;13.33;62.94;98372.28;10470492;28;20394;-73
2021/10/21 11:12:42;;;;;;;3.08;0.20;;;;;;;13.45;58.35;98453.22;10452677;28;20052;-74
2021/10/21 11:17:45;;;;;;;3.20;0.20;;;;;;;13.40;58.35;98430.75;10452899;28;20106;-73
2021/10/21 11:22:46;;;;;;;0.73;0.10;;;;;;;13.33;58.21;98497.16;10477088;28;20044;-73
2021/10/21 11:27:52;;;;;;;2.20;0.30;;;;;;;13.33;56.15;98530.63;10454102;28;20052;-73
2021/10/21 11:32:57;;;;;;;3.60;0.30;;;;;;;13.25;55.98;98525.00;10455454;28;20091;-74
2021/10/21 11:38:11;;;;;;;4.80;0.17;;;;;;;13.17;58.30;98559.78;10459725;28;20288;-73
2021/10/21 11:43:18;;;;;;;5.43;0.15;;;;;;;13.19;56.05;98576.34;10461159;28;20125;-74
2021/10/21 11:48:23;;;;;;;5.53;0.32;;;;;;;13.32;54.60;98589.63;10460194;28;20554;-73
2021/10/21 11:53:27;;;;;;;3.40;0.30;;;;;;;13.57;52.85;98588.84;10403775;28;1804542;-74
2021/10/21 11:58:33;;;;;;;2.47;0.40;;;;;;;13.77;50.68;98613.91;10504264;28;20378;-73
2021/10/21 12:03:39;;;;;;;2.27;0.30;;;;;;;13.65;51.00;98583.06;10503807;28;20037;-72
2021/10/21 12:08:53;;;;;;;1.77;0.20;;;;;;;13.68;51.06;98593.38;10488965;28;20094;-75
2021/10/21 12:14:02;;;;;;;1.23;0.20;;;;;;;13.97;50.35;98605.47;10441429;28;20427;-73
2021/10/21 12:19:06;;;;;;;2.28;0.28;;;;;;;14.09;50.39;98622.28;10503935;28;20059;-73
2021/10/21 12:24:18;;;;;;;2.25;0.30;;;;;;;14.05;49.52;98624.28;10503053;28;20127;-74
2021/10/21 12:29:20;;;;;;;1.52;0.17;;;;;;;14.11;48.56;98617.72;10501718;28;20048;-73
2021/10/21 12:34:27;;;;;;;2.30;0.30;;;;;;;13.95;49.54;98633.81;10498687;28;20036;-73
2021/10/21 12:39:32;;;;;;;2.33;0.50;;;;;;;13.96;49.86;98647.84;10501652;28;20420;-73
2021/10/21 12:44:38;;;;;;;5.18;0.20;;;;;;;13.88;52.16;98648.38;10503088;28;20459;-74
2021/10/21 12:49:40;;;;;;;1.40;0.30;;;;;;;13.98;53.12;98651.22;10502140;28;20540;-73
2021/10/21 12:54:42;;;;;;;2.22;0.40;;;;;;;14.08;51.40;98668.16;10502065;28;20094;-73
2021/10/21 12:59:43;;;;;;;7.18;0.50;;;;;;;14.28;50.91;98674.72;10502891;28;20086;-72
2021/10/21 13:04:49;;;;;;;4.90;0.32;;;;;;;13.96;51.09;98690.97;10492699;28;20037;-73
2021/10/21 13:09:52;;;;;;;4.82;0.40;;;;;;;13.98;48.81;98696.97;10482778;28;20087;-73
2021/10/21 13:14:54;;;;;;;2.63;0.90;;;;;;;13.96;47.09;98698.88;10478997;28;20041;-74
2021/10/21 13:19:56;;;;;;;1.63;0.40;;;;;;;13.83;45.97;98696.22;10471697;28;20090;-73
2021/10/21 13:24:57;;;;;;;2.38;0.20;;;;;;;13.90;46.80;98731.00;10482987;28;20090;-73
2021/10/21 13:29:59;;;;;;;2.97;0.68;;;;;;;13.87;46.32;98721.47;10470671;28;20045;-74
2021/10/21 13:35:02;;;;;;;2.00;0.50;;;;;;;13.78;46.29;98718.59;10483499;28;20120;-73
2021/10/21 13:40:04;;;;;;;1.73;0.40;;;;;;;13.75;45.90;98722.28;10500572;28;20044;-73
2021/10/21 13:45:06;;;;;;;2.55;0.45;;;;;;;13.60;45.60;98713.56;10499798;28;20513;-75
2021/10/21 13:50:08;;;;;;;1.73;0.40;;;;;;;13.70;45.42;98732.31;10500709;28;20048;-74
2021/10/21 13:55:09;;;;;;;1.88;0.45;;;;;;;13.63;44.89;98741.56;10498195;28;20071;-75
2021/10/21 14:00:14;;;;;;;2.15;0.38;;;;;;;13.54;45.48;98745.63;10498299;28;20041;-74
2021/10/21 14:05:16;;;;;;;5.53;0.68;;;;;;;13.68;45.59;98721.00;10498311;28;20463;-74
2021/10/21 14:10:18;;;;;;;2.20;0.40;;;;;;;13.80;44.69;98720.19;10500510;28;20053;-73
2021/10/21 14:15:20;;;;;;;3.17;0.82;;;;;;;13.81;44.83;98758.00;10499183;28;20045;-72
2021/10/21 14:20:23;;;;;;;5.45;0.50;;;;;;;13.95;45.05;98765.03;10497292;28;20052;-74
2021/10/21 14:25:24;;;;;;;1.38;0.40;;;;;;;14.03;43.86;98775.94;10498825;28;20403;-73
2021/10/21 14:30:26;;;;;;;1.13;0.45;;;;;;;13.94;44.31;98773.91;10500184;28;20044;-73
2021/10/21 14:35:28;;;;;;;1.77;0.50;;;;;;;13.99;43.91;98782.38;10499077;28;20051;-74
2021/10/21 14:40:29;;;;;;;2.45;0.50;;;;;;;13.95;44.22;98794.94;10498320;28;20063;-73
2021/10/21 14:45:31;;;;;;;0.93;0.30;;;;;;;13.85;44.39;98783.25;10498788;28;20036;-73
2021/10/21 14:50:33;;;;;;;2.58;0.60;;;;;;;13.78;45.53;98800.47;10498694;28;20040;-73
2021/10/21 14:55:35;;;;;;;3.50;0.50;;;;;;;13.73;45.25;98802.56;10498471;28;20120;-72
2021/10/21 15:00:39;;;;;;;1.80;0.50;;;;;;;13.70;45.52;98806.25;10499417;28;20063;-74
2021/10/21 15:05:48;;;;;;;1.63;0.57;;;;;;;13.57;46.04;98802.69;10498440;28;20040;-72
2021/10/21 15:16:34;;;;;;;2.95;0.60;;;;;;;13.50;46.37;98802.25;10506800;28;20056;-73
2021/10/21 15:26:55;;;;;;;1.33;0.40;;;;;;;13.19;46.73;98797.97;10506347;28;20036;-73
2021/10/21 15:31:57;;;;;;;1.70;0.70;;;;;;;13.06;46.89;98802.34;10505700;28;20048;-73
2021/10/21 15:36:59;;;;;;;2.90;0.77;;;;;;;13.13;46.30;98804.50;10505564;28;20036;-73
2021/10/21 15:42:00;;;;;;;1.45;0.50;;;;;;;13.12;46.39;98791.41;10504873;28;20044;-73
2021/10/21 15:47:02;;;;;;;2.50;0.30;;;;;;;13.10;46.21;98802.06;10504581;28;20052;-73
2021/10/21 16:13:26;;;;;;;3.20;0.80;;;;;;;12.88;47.71;98826.28;10439478;28;20490;-68
2021/10/21 16:18:28;;;;;;;2.30;0.70;;;;;;;12.85;48.04;98836.16;10423927;28;20105;-68
2021/10/21 16:23:40;;;;;;;2.35;0.60;;;;;;;12.79;48.42;98847.03;10423212;28;20483;-69
2021/10/21 16:28:42;;;;;;;2.65;0.65;;;;;;;12.80;48.55;98854.03;10422543;28;20061;-68
2021/10/21 16:33:44;;;;;;;2.58;0.90;;;;;;;12.67;48.91;98859.19;10420690;28;20046;-68
2021/10/21 16:38:45;;;;;;;1.92;0.80;;;;;;;12.72;48.80;98869.47;10423226;28;20487;-68
2021/10/21 16:43:51;;;;;;;1.83;0.80;;;;;;;12.65;49.03;98876.88;10421906;28;20045;-67
2021/10/21 16:48:54;;;;;;;2.60;0.65;;;;;;;12.65;49.12;98862.84;10422432;28;20056;-68
2021/10/21 16:53:56;;;;;;;3.58;0.60;;;;;;;12.61;48.81;98863.00;10419857;28;20044;-68
2021/10/21 16:58:58;;;;;;;4.70;0.80;;;;;;;12.55;48.99;98863.38;10418152;28;20494;-68
2021/10/21 17:04:00;;;;;;;2.22;0.70;;;;;;;12.54;48.76;98869.59;10418761;28;20044;-69
2021/10/21 17:09:02;;;;;;;3.65;1.85;;;;;;;12.47;48.93;98873.53;10418040;28;20103;-69
2021/10/21 17:14:03;;;;;;;3.20;0.70;;;;;;;12.35;49.42;98879.50;10417924;28;20060;-67
2021/10/21 17:19:06;;;;;;;2.67;0.80;;;;;;;12.46;48.85;98877.09;10417858;28;20049;-69
2021/10/21 17:24:10;;;;;;;3.47;0.70;;;;;;;12.46;48.68;98860.44;10416404;28;20046;-68
2021/10/21 17:29:13;;;;;;;3.58;0.80;;;;;;;12.43;48.95;98872.00;10418052;28;20052;-68
2021/10/21 17:34:15;;;;;;;3.05;0.73;;;;;;;12.48;49.12;98869.09;10434329;28;20045;-69
2021/10/21 17:39:17;;;;;;;2.08;0.80;;;;;;;12.42;48.96;98880.00;10419069;28;20072;-68
2021/10/21 17:44:18;;;;;;;3.65;0.90;;;;;;;12.36;49.16;98892.59;10418948;28;20037;-69
2021/10/21 17:49:20;;;;;;;2.88;0.90;;;;;;;12.33;49.63;98920.91;10418082;28;20049;-68
2021/10/21 17:54:22;;;;;;;3.30;1.00;;;;;;;12.40;50.90;98953.88;10418903;28;20045;-69
2021/10/21 17:59:24;;;;;;;6.35;0.82;;;;;;;12.16;56.20;99037.75;10418366;28;20048;-69
2021/10/21 18:04:26;;;;;;;2.85;0.50;;;;;;;10.53;65.47;99065.28;10419505;28;20443;-68
2021/10/21 18:09:28;;;;;;;2.08;0.43;;;;;;;9.85;68.83;99054.34;10415873;28;20042;-68
2021/10/21 18:14:29;;;;;;;1.92;0.30;;;;;;;9.61;69.56;99058.91;10416227;28;20072;-68
2021/10/21 18:19:32;;;;;;;0.10;0.10;;;;;;;9.38;70.87;99066.91;10417084;28;20490;-68
2021/10/21 18:24:34;;;;;;;0.55;0.20;;;;;;;9.32;70.39;99078.50;10418200;28;20067;-70
2021/10/21 18:29:35;;;;;;;0.70;0.20;;;;;;;9.38;69.83;99093.97;10418433;28;20120;-70
2021/10/21 18:34:38;;;;;;;0.88;0.20;;;;;;;9.47;67.09;99100.59;10437277;28;20182;-67
2021/10/21 18:39:40;;;;;;;0.80;0.20;;;;;;;9.52;66.66;99117.88;10419949;28;20099;-68
2021/10/21 18:44:42;;;;;;;0.75;0.25;;;;;;;9.28;67.49;99124.13;10418329;28;20091;-68
2021/10/21 18:49:46;;;;;;;0.95;0.30;;;;;;;8.92;70.77;99116.84;10420047;28;20049;-67
2021/10/21 18:54:48;;;;;;;0.88;0.30;;;;;;;8.52;73.99;99099.19;10434033;28;20046;-68
2021/10/21 18:59:52;;;;;;;0.85;0.38;;;;;;;8.44;74.77;99099.47;10419529;28;20049;-69
2021/10/21 19:04:54;;;;;;;1.75;0.32;;;;;;;8.57;73.94;99103.34;10433296;28;20483;-67
2021/10/21 19:09:56;;;;;;;1.10;0.30;;;;;;;8.64;72.85;99116.22;10418584;28;20081;-69
2021/10/21 19:14:58;;;;;;;0.70;0.40;;;;;;;8.66;73.55;99125.72;10435872;28;20088;-67
2021/10/21 19:20:03;;;;;;;2.25;1.35;;;;;;;8.75;73.59;99119.25;10419590;28;20069;-68
2021/10/21 19:25:06;;;;;;;1.15;0.40;;;;;;;8.74;74.77;99128.03;10418185;28;20091;-69
2021/10/21 19:30:11;;;;;;;0.30;0.30;;;;;;;8.68;74.96;99134.38;10418689;28;20044;-68
2021/10/21 19:35:14;;;;;;;0.95;0.30;;;;;;;8.61;75.68;99151.22;10418043;28;20069;-69
2021/10/21 19:40:15;;;;;;;0.50;0.25;;;;;;;8.58;75.44;99153.97;10417815;28;20155;-67
2021/10/21 19:45:17;;;;;;;0.90;0.35;;;;;;;8.57;76.00;99181.06;10419455;28;20057;-68
2021/10/21 19:50:19;;;;;;;0.50;0.30;;;;;;;8.55;76.47;99183.75;10418140;28;20041;-68
2021/10/21 19:55:21;;;;;;;0.40;0.20;;;;;;;8.59;76.36;99198.44;10421935;28;20047;-69
2021/10/21 20:00:23;;;;;;;0.75;0.50;;;;;;;8.52;75.98;99202.19;10427835;28;20495;-69
2021/10/21 20:05:26;;;;;;;0.88;0.50;;;;;;;8.58;75.84;99195.88;10424542;28;20124;-68
2021/10/21 20:10:32;;;;;;;0.88;0.50;;;;;;;8.58;75.99;99224.69;10422229;28;20049;-68
2021/10/21 20:15:34;;;;;;;1.40;0.60;;;;;;;8.58;75.88;99250.88;10421637;28;20344;-68
2021/10/21 20:20:36;;;;;;;0.40;0.40;;;;;;;8.59;75.27;99278.81;10420764;28;20119;-69
2021/10/21 20:25:38;;;;;;;0.98;0.60;;;;;;;8.59;76.39;99284.06;10421934;28;20060;-69
2021/10/21 20:30:40;;;;;;;2.80;1.48;;;;;;;8.59;75.20;99286.66;10422777;28;20073;-67
2021/10/21 20:35:42;;;;;;;2.13;0.50;;;;;;;8.54;75.57;99309.53;10420466;28;20506;-69
2021/10/21 20:40:47;;;;;;;1.73;0.63;;;;;;;8.58;74.91;99308.50;10420704;28;20064;-68
2021/10/21 20:45:48;;;;;;;0.98;0.57;;;;;;;8.57;75.44;99315.50;10421137;28;20064;-68
2021/10/21 20:50:50;;;;;;;2.53;0.50;;;;;;;8.56;75.00;99347.88;10420667;28;20103;-69
2021/10/21 20:55:52;;;;;;;1.75;0.60;;;;;;;8.58;74.54;99346.03;10420040;28;20041;-69
2021/10/21 21:00:54;;;;;;;0.50;0.47;;;;;;;8.61;74.12;99345.09;10420087;28;20449;-67
2021/10/21 21:05:57;;;;;;;1.23;0.40;;;;;;;8.55;73.85;99358.41;10419789;28;20518;-68
2021/10/21 21:10:59;;;;;;;1.08;0.50;;;;;;;8.57;74.09;99367.91;10420911;28;20052;-67
2021/10/21 21:16:02;;;;;;;1.13;0.55;;;;;;;8.45;74.14;99375.31;10419895;28;20037;-67
2021/10/21 21:21:07;;;;;;;1.05;0.75;;;;;;;8.28;74.69;99383.72;10418744;28;20132;-67
2021/10/21 21:26:09;;;;;;;2.67;0.73;;;;;;;8.27;74.01;99380.22;10434026;28;20545;-67
2021/10/21 21:31:10;;;;;;;0.95;0.60;;;;;;;8.28;73.28;99399.44;10435057;28;20121;-67
2021/10/21 21:36:12;;;;;;;3.00;0.50;;;;;;;8.06;73.75;99388.81;10420305;28;20381;-67
2021/10/21 21:41:14;;;;;;;2.17;0.50;;;;;;;8.02;73.93;99414.22;10422113;28;20454;-68
2021/10/21 21:46:15;;;;;;;2.95;0.60;;;;;;;8.00;73.09;99399.44;10422580;28;20041;-68
2021/10/21 21:51:17;;;;;;;2.67;0.65;;;;;;;8.03;72.43;99402.84;10420242;28;20049;-69
2021/10/21 21:56:21;;;;;;;3.97;0.63;;;;;;;7.92;72.91;99407.53;10420382;28;20093;-67
2021/10/21 22:01:25;;;;;;;3.95;1.45;;;;;;;7.91;72.17;99408.44;10465546;22;20045;-72
2021/10/21 22:06:26;;;;;;;2.92;1.08;;;;;;;7.85;71.98;99411.25;10461195;28;20120;-72
2021/10/21 22:11:28;;;;;;;3.58;0.70;;;;;;;7.77;71.77;99415.88;10459633;28;20509;-72
2021/10/21 22:16:32;;;;;;;2.85;0.60;;;;;;;7.78;71.80;99426.28;10459943;28;20037;-73
2021/10/21 22:21:33;;;;;;;2.83;0.65;;;;;;;7.78;71.67;99441.13;10457984;28;20182;-72
2021/10/21 22:26:35;;;;;;;3.38;0.63;;;;;;;7.60;72.32;99434.66;10460031;28;20045;-72
2021/10/21 22:31:37;;;;;;;3.67;0.70;;;;;;;7.63;72.39;99441.56;10456793;28;20056;-72
2021/10/21 22:36:40;;;;;;;8.13;1.20;;;;;;;7.68;72.33;99445.78;10459058;28;20037;-72
2021/10/21 22:41:41;;;;;;;3.25;1.00;;;;;;;7.61;72.63;99459.06;10458015;28;20132;-72
2021/10/21 22:46:45;;;;;;;6.18;1.25;;;;;;;7.56;72.83;99464.41;10457595;28;20048;-72
2021/10/21 22:51:47;;;;;;;3.72;0.80;;;;;;;7.43;72.76;99474.38;10459315;28;20093;-72
2021/10/21 22:56:48;;;;;;;14.73;1.38;;;;;;;7.47;72.79;99483.84;10457198;28;20090;-71
2021/10/21 23:01:51;;;;;;;9.52;1.25;;;;;;;7.50;71.90;99488.16;10439591;28;20429;-72
2021/10/21 23:06:52;;;;;;;5.90;1.20;;;;;;;7.40;71.67;99490.16;10457944;28;20560;-72
2021/10/21 23:11:54;;;;;;;5.60;1.20;;;;;;;7.43;71.88;99503.13;10455997;28;20048;-72
2021/10/21 23:16:55;;;;;;;4.95;1.50;;;;;;;7.41;70.78;99515.41;10456009;28;20049;-72
2021/10/21 23:21:57;;;;;;;7.20;1.65;;;;;;;7.24;70.91;99520.22;10457351;28;20048;-72
2021/10/21 23:26:59;;;;;;;7.03;1.15;;;;;;;7.16;71.09;99520.41;10457350;28;20045;-72
2021/10/21 23:32:01;;;;;;;6.05;1.33;;;;;;;7.14;70.22;99526.59;10463710;28;20079;-72
2021/10/21 23:37:04;;;;;;;6.72;1.98;;;;;;;7.08;69.92;99519.75;10464703;28;20041;-72
2021/10/21 23:42:05;;;;;;;6.70;1.38;;;;;;;7.05;68.87;99520.72;10464453;28;20387;-71
2021/10/21 23:47:07;;;;;;;5.05;1.25;;;;;;;6.94;69.57;99525.34;10464938;28;20044;-72
2021/10/21 23:52:11;;;;;;;6.50;1.65;;;;;;;6.93;68.98;99541.91;10464153;28;20064;-71
2021/10/21 23:57:12;;;;;;;4.82;1.13;;;;;;;6.94;68.41;99551.47;10465205;28;20051;-76
